createdAt,value
2018-12-20T00:02:16.337Z,117.53
2018-12-20T00:06:10.726Z,109.60
2018-12-20T00:09:25.058Z,109.27
2018-12-20T00:12:02.153Z,113.43
2018-12-20T00:16:58.955Z,103.53
2018-12-20T00:19:36.201Z,106.37
2018-12-20T00:22:37.009Z,110.93
2018-12-20T00:25:08.150Z,109.67
2018-12-20T00:27:40.581Z,114.60
2018-12-20T00:30:11.494Z,100.73
2018-12-20T00:32:43.433Z,113.73
2018-12-20T00:35:14.358Z,111.90
2018-12-20T00:37:47.412Z,113.40
2018-12-20T00:40:18.664Z,108.00
2018-12-20T00:42:49.746Z,120.43
2018-12-20T00:45:21.429Z,113.50
2018-12-20T00:47:52.657Z,116.20
2018-12-20T00:50:23.724Z,108.03
2018-12-20T00:52:54.843Z,117.47
2018-12-20T00:55:26.296Z,114.30
2018-12-20T00:57:57.756Z,113.60
2018-12-20T01:00:28.878Z,110.33
2018-12-20T01:02:59.976Z,121.87
2018-12-20T01:05:31.302Z,121.97
2018-12-20T01:08:02.351Z,119.47
2018-12-20T01:10:33.128Z,120.53
2018-12-20T01:13:04.169Z,112.97
2018-12-20T01:15:35.334Z,116.53
2018-12-20T01:18:06.493Z,112.13
2018-12-20T01:20:37.475Z,113.37
2018-12-20T01:23:08.359Z,115.20
2018-12-20T01:25:39.410Z,117.83
2018-12-20T01:28:10.480Z,113.23
2018-12-20T01:30:41.382Z,114.33
2018-12-20T01:33:13.096Z,119.90
2018-12-20T01:35:44.813Z,117.50
2018-12-20T01:38:15.714Z,108.73
2018-12-20T01:40:47.087Z,108.80
2018-12-20T01:43:20.903Z,118.50
2018-12-20T01:45:52.931Z,112.17
2018-12-20T01:48:24.062Z,110.73
2018-12-20T01:50:56.244Z,123.53
2018-12-20T01:53:27.362Z,123.77
2018-12-20T01:55:58.441Z,126.50
2018-12-20T01:58:29.904Z,119.00
2018-12-20T02:01:00.776Z,121.43
2018-12-20T02:03:31.946Z,119.77
2018-12-20T02:06:03.563Z,125.87
2018-12-20T02:08:34.790Z,126.20
2018-12-20T02:11:05.907Z,118.80
2018-12-20T02:13:37.341Z,124.07
2018-12-20T02:16:08.656Z,124.53
2018-12-20T02:18:40.014Z,121.83
2018-12-20T02:21:11.131Z,115.00
2018-12-20T02:23:42.190Z,123.13
2018-12-20T02:26:13.084Z,117.13
2018-12-20T02:28:44.073Z,118.50
2018-12-20T02:31:14.997Z,132.97
2018-12-20T02:33:45.805Z,115.83
2018-12-20T02:36:16.785Z,120.03
2018-12-20T02:38:47.795Z,114.10
2018-12-20T02:41:19.508Z,117.70
2018-12-20T02:43:50.869Z,121.20
2018-12-20T02:46:22.151Z,106.00
2018-12-20T02:48:53.360Z,118.47
2018-12-20T02:51:24.268Z,111.60
2018-12-20T02:53:55.046Z,121.43
2018-12-20T02:56:26.094Z,119.80
2018-12-20T02:58:57.390Z,111.23
2018-12-20T03:01:28.329Z,111.80
2018-12-20T03:03:59.319Z,110.90
2018-12-20T03:06:30.557Z,116.67
2018-12-20T03:09:01.343Z,124.03
2018-12-20T03:11:33.681Z,110.80
2018-12-20T03:14:04.872Z,116.70
2018-12-20T03:16:35.802Z,117.80
2018-12-20T03:19:07.227Z,111.10
2018-12-20T03:21:37.794Z,118.23
2018-12-20T03:24:08.802Z,119.70
2018-12-20T03:26:39.776Z,110.43
2018-12-20T03:29:11.011Z,115.20
2018-12-20T03:31:41.843Z,115.37
2018-12-20T03:34:12.817Z,122.33
2018-12-20T03:36:43.871Z,114.73
2018-12-20T03:39:15.400Z,104.07
2018-12-20T03:41:46.408Z,111.60
2018-12-20T03:44:17.304Z,109.93
2018-12-20T03:46:48.298Z,105.67
2018-12-20T03:49:19.714Z,111.83
2018-12-20T03:51:52.065Z,106.80
2018-12-20T03:54:24.099Z,106.77
2018-12-20T03:56:54.797Z,111.17
2018-12-20T03:59:26.874Z,104.73
2018-12-20T04:01:57.741Z,110.77
2018-12-20T04:04:28.951Z,110.63
2018-12-20T04:06:59.713Z,107.60
2018-12-20T04:09:30.501Z,113.90
2018-12-20T04:12:02.734Z,104.50
2018-12-20T04:14:33.934Z,106.80
2018-12-20T04:17:04.752Z,110.73
2018-12-20T04:19:35.548Z,110.30
2018-12-20T04:22:06.475Z,118.67
2018-12-20T04:24:38.531Z,107.93
2018-12-20T04:27:09.568Z,104.20
2018-12-20T04:29:40.314Z,109.67
2018-12-20T04:32:10.913Z,107.43
2018-12-20T04:34:41.666Z,112.50
2018-12-20T04:37:12.569Z,105.50
2018-12-20T04:39:43.481Z,105.53
2018-12-20T04:42:13.927Z,107.23
2018-12-20T04:44:44.654Z,110.50
2018-12-20T04:47:15.213Z,113.80
2018-12-20T04:49:45.733Z,110.13
2018-12-20T04:52:16.301Z,102.80
2018-12-20T04:54:47.000Z,106.87
2018-12-20T04:57:17.613Z,106.03
2018-12-20T04:59:49.047Z,111.67
2018-12-20T05:02:19.580Z,110.27
2018-12-20T05:04:50.264Z,101.47
2018-12-20T05:07:22.329Z,107.47
2018-12-20T05:09:53.569Z,113.13
2018-12-20T05:12:23.745Z,100.23
2018-12-20T05:14:54.851Z,100.80
2018-12-20T05:17:25.912Z,106.60
2018-12-20T05:19:56.995Z,106.80
2018-12-20T05:22:28.251Z,103.73
2018-12-20T05:24:59.182Z,103.77
2018-12-20T05:27:30.419Z,100.27
2018-12-20T05:30:02.307Z,111.27
2018-12-20T05:32:33.223Z,113.20
2018-12-20T05:35:04.979Z,107.97
2018-12-20T05:37:36.270Z,101.17
2018-12-20T05:40:07.910Z,110.13
2018-12-20T05:42:39.793Z,103.80
2018-12-20T05:45:10.587Z,107.50
2018-12-20T05:47:42.301Z,105.70
2018-12-20T05:50:13.103Z,111.50
2018-12-20T05:52:43.819Z,110.07
2018-12-20T05:55:14.990Z,113.33
2018-12-20T05:57:45.899Z,116.77
2018-12-20T06:00:17.304Z,113.37
2018-12-20T06:02:48.332Z,107.07
2018-12-20T06:05:19.679Z,111.17
2018-12-20T06:07:50.110Z,113.53
2018-12-20T06:10:20.685Z,118.93
2018-12-20T06:12:51.706Z,120.90
2018-12-20T06:15:23.093Z,123.87
2018-12-20T06:17:55.207Z,119.40
2018-12-20T06:20:26.633Z,121.43
2018-12-20T06:22:57.559Z,128.07
2018-12-20T06:25:28.125Z,121.23
2018-12-20T06:27:58.508Z,120.77
2018-12-20T06:30:29.390Z,118.70
2018-12-20T06:33:00.222Z,113.17
2018-12-20T06:35:31.185Z,121.00
2018-12-20T06:38:02.183Z,125.90
2018-12-20T06:40:33.103Z,116.83
2018-12-20T06:43:03.273Z,122.83
2018-12-20T06:45:34.130Z,124.63
2018-12-20T06:48:05.024Z,122.17
2018-12-20T06:50:35.969Z,134.50
2018-12-20T06:53:06.903Z,135.03
2018-12-20T06:55:37.967Z,131.30
2018-12-20T06:58:09.804Z,127.00
2018-12-20T07:00:41.693Z,123.33
2018-12-20T07:03:12.687Z,122.13
2018-12-20T07:05:43.484Z,124.83
2018-12-20T07:08:14.390Z,121.67
2018-12-20T07:10:45.206Z,136.30
2018-12-20T07:13:15.875Z,125.90
2018-12-20T07:15:46.177Z,130.73
2018-12-20T07:18:16.877Z,126.53
2018-12-20T07:20:48.794Z,128.10
2018-12-20T07:23:19.444Z,124.30
2018-12-20T07:25:50.038Z,125.73
2018-12-20T07:28:20.936Z,128.97
2018-12-20T07:30:52.060Z,140.23
2018-12-20T07:33:22.967Z,133.97
2018-12-20T07:35:53.237Z,132.37
2018-12-20T07:38:23.318Z,135.80
2018-12-20T07:40:53.898Z,144.40
2018-12-20T07:43:24.687Z,138.27
2018-12-20T07:45:55.821Z,138.67
2018-12-20T07:48:32.024Z,144.37
2018-12-20T07:51:00.584Z,137.20
2018-12-20T07:53:31.664Z,138.43
2018-12-20T07:56:02.705Z,134.10
2018-12-20T07:58:33.535Z,128.07
2018-12-20T08:01:06.479Z,135.23
2018-12-20T08:03:37.477Z,133.30
2018-12-20T08:06:08.466Z,133.87
2018-12-20T08:08:39.203Z,128.90
2018-12-20T08:11:10.131Z,140.23
2018-12-20T08:13:41.079Z,123.50
2018-12-20T08:16:12.458Z,135.97
2018-12-20T08:18:43.160Z,130.67
2018-12-20T08:21:14.104Z,129.47
2018-12-20T08:23:45.027Z,120.00
2018-12-20T08:26:15.846Z,123.03
2018-12-20T08:28:46.661Z,128.13
2018-12-20T08:31:17.287Z,129.77
2018-12-20T08:33:48.352Z,137.23
2018-12-20T08:36:19.561Z,132.17
2018-12-20T08:38:50.478Z,132.50
2018-12-20T08:41:22.035Z,130.93
2018-12-20T08:43:52.717Z,140.43
2018-12-20T08:46:24.707Z,129.13
2018-12-20T08:48:55.591Z,131.90
2018-12-20T08:51:26.266Z,126.20
2018-12-20T08:53:57.076Z,131.30
2018-12-20T08:56:28.262Z,129.80
2018-12-20T08:58:58.988Z,131.83
2018-12-20T09:01:30.305Z,127.47
2018-12-20T09:04:01.302Z,139.03
2018-12-20T09:06:32.751Z,127.90
2018-12-20T09:09:05.637Z,131.07
2018-12-20T09:11:36.520Z,139.03
2018-12-20T09:14:07.454Z,130.30
2018-12-20T09:16:38.708Z,130.47
2018-12-20T09:19:10.769Z,130.57
2018-12-20T09:21:41.738Z,128.43
2018-12-20T09:24:12.820Z,125.80
2018-12-20T09:26:43.557Z,119.47
2018-12-20T09:29:14.506Z,132.70
2018-12-20T09:31:46.266Z,127.23
2018-12-20T09:34:17.217Z,130.60
2018-12-20T09:36:48.318Z,117.10
2018-12-20T09:39:20.108Z,130.70
2018-12-20T09:41:50.949Z,114.57
2018-12-20T09:44:21.738Z,165.97
2018-12-20T09:46:58.159Z,145.87
2018-12-20T09:49:29.256Z,183.63
2018-12-20T09:52:02.215Z,226.53
2018-12-20T09:54:33.382Z,220.90
2018-12-20T09:57:04.819Z,247.70
2018-12-20T09:59:35.877Z,204.13
2018-12-20T10:02:07.410Z,220.07
2018-12-20T10:04:38.527Z,192.97
2018-12-20T10:07:10.989Z,203.07
2018-12-20T10:09:41.671Z,193.37
2018-12-20T10:12:12.595Z,208.43
2018-12-20T10:14:43.503Z,181.10
2018-12-20T10:17:19.880Z,193.87
2018-12-20T10:19:48.680Z,166.97
2018-12-20T10:22:19.522Z,180.67
2018-12-20T10:24:51.461Z,165.50
2018-12-20T10:27:31.201Z,171.30
2018-12-20T10:29:56.264Z,163.07
2018-12-20T10:32:27.280Z,173.87
2018-12-20T10:34:58.209Z,180.33
2018-12-20T10:37:29.399Z,169.07
2018-12-20T10:40:00.473Z,208.67
2018-12-20T10:42:32.090Z,178.40
2018-12-20T10:45:02.984Z,180.83
2018-12-20T10:47:34.974Z,179.93
2018-12-20T10:50:06.717Z,165.03
2018-12-20T10:52:38.463Z,161.27
2018-12-20T10:55:09.605Z,149.10
2018-12-20T10:57:41.031Z,152.07
2018-12-20T11:00:12.193Z,155.13
2018-12-20T11:02:50.635Z,151.97
2018-12-20T11:05:27.864Z,155.27
2018-12-20T11:08:03.103Z,153.97
2018-12-20T11:10:34.242Z,163.07
2018-12-20T11:13:35.703Z,154.87
2018-12-20T11:16:06.228Z,158.07
2018-12-20T11:18:37.215Z,149.73
2018-12-20T11:21:08.148Z,144.83
2018-12-20T11:23:39.109Z,156.60
2018-12-20T11:26:09.783Z,149.17
2018-12-20T11:28:40.527Z,155.90
2018-12-20T11:31:12.021Z,151.90
2018-12-20T11:33:42.804Z,154.83
2018-12-20T11:36:16.858Z,164.20
2018-12-20T11:38:47.332Z,154.37
2018-12-20T11:41:17.942Z,168.80
2018-12-20T11:43:48.331Z,165.07
2018-12-20T11:46:18.828Z,170.83
2018-12-20T11:48:50.059Z,164.63
2018-12-20T11:51:20.734Z,172.47
2018-12-20T11:53:51.576Z,180.87
2018-12-20T11:56:22.682Z,170.20
2018-12-20T11:58:52.981Z,174.10
2018-12-20T12:01:23.063Z,164.57
2018-12-20T12:03:57.413Z,157.03
2018-12-20T12:06:26.015Z,167.03
2018-12-20T12:08:57.024Z,165.13
2018-12-20T12:11:27.928Z,170.73
2018-12-20T12:13:58.233Z,188.10
2018-12-20T12:16:30.103Z,195.10
2018-12-20T12:19:00.839Z,172.37
2018-12-20T12:21:32.137Z,180.87
2018-12-20T12:24:03.078Z,176.07
2018-12-20T12:26:34.103Z,175.90
2018-12-20T12:29:04.802Z,163.90
2018-12-20T12:31:36.236Z,163.20
2018-12-20T12:34:07.284Z,187.53
2018-12-20T12:36:39.099Z,223.10
2018-12-20T12:39:10.018Z,197.43
2018-12-20T12:41:41.209Z,207.50
2018-12-20T12:44:12.265Z,192.87
2018-12-20T12:46:42.649Z,203.60
2018-12-20T12:49:13.479Z,253.67
2018-12-20T12:51:52.972Z,261.90
2018-12-20T12:54:17.417Z,238.57
2018-12-20T12:56:48.366Z,229.20
2018-12-20T12:59:19.827Z,224.00
2018-12-20T13:01:51.159Z,220.20
2018-12-20T13:04:22.191Z,210.57
2018-12-20T13:06:53.419Z,204.03
2018-12-20T13:09:24.521Z,201.17
2018-12-20T13:11:55.430Z,192.83
2018-12-20T13:14:25.870Z,190.63
2018-12-20T13:16:56.648Z,171.40
2018-12-20T13:19:27.636Z,176.77
2018-12-20T13:21:58.537Z,167.83
2018-12-20T13:24:29.059Z,161.17
2018-12-20T13:27:00.041Z,169.67
2018-12-20T13:29:31.851Z,169.43
2018-12-20T13:32:02.414Z,155.43
2018-12-20T13:34:34.073Z,160.47
2018-12-20T13:37:05.159Z,153.80
2018-12-20T13:39:35.895Z,157.10
2018-12-20T13:42:06.932Z,151.23
2018-12-20T13:44:37.413Z,154.00
2018-12-20T13:47:07.851Z,141.53
2018-12-20T13:49:42.283Z,145.67
2018-12-20T13:52:12.909Z,142.03
2018-12-20T13:54:43.862Z,143.23
2018-12-20T13:57:14.949Z,136.73
2018-12-20T13:59:45.730Z,146.17
2018-12-20T14:02:16.618Z,143.13
2018-12-20T14:04:48.345Z,139.73
2018-12-20T14:07:19.992Z,147.90
2018-12-20T14:09:51.658Z,142.90
2018-12-20T14:12:22.399Z,134.00
2018-12-20T14:14:53.324Z,144.77
2018-12-20T14:17:24.153Z,146.43
2018-12-20T14:19:55.265Z,142.60
2018-12-20T14:22:26.355Z,152.80
2018-12-20T14:24:57.093Z,154.27
2018-12-20T14:27:27.886Z,159.53
2018-12-20T14:29:58.895Z,148.87
2018-12-20T14:32:29.906Z,157.10
2018-12-20T14:35:01.791Z,149.77
2018-12-20T14:37:33.624Z,147.37
2018-12-20T14:40:04.898Z,162.60
2018-12-20T14:42:37.865Z,164.93
2018-12-20T14:45:08.742Z,155.47
2018-12-20T14:47:39.647Z,153.93
2018-12-20T14:50:10.711Z,152.87
2018-12-20T14:52:43.438Z,160.70
2018-12-20T14:55:14.539Z,163.60
2018-12-20T14:57:45.200Z,161.37
2018-12-20T15:00:16.222Z,172.30
2018-12-20T15:02:48.499Z,156.80
2018-12-20T15:05:19.693Z,158.93
2018-12-20T15:07:51.628Z,162.27
2018-12-20T15:10:23.268Z,157.60
2018-12-20T15:12:54.356Z,151.50
2018-12-20T15:15:25.345Z,155.00
2018-12-20T15:18:01.764Z,155.40
2018-12-20T15:20:40.228Z,167.87
2018-12-20T15:23:05.261Z,160.77
2018-12-20T15:25:36.081Z,172.03
2018-12-20T15:28:07.244Z,162.27
2018-12-20T15:30:38.038Z,160.53
2018-12-20T15:33:08.510Z,152.83
2018-12-20T15:35:39.419Z,148.20
2018-12-20T15:38:10.703Z,148.33
2018-12-20T15:40:42.087Z,156.63
2018-12-20T15:43:13.102Z,153.60
2018-12-20T15:45:44.068Z,155.67
2018-12-20T15:48:17.986Z,150.30
2018-12-20T15:50:48.677Z,138.93
2018-12-20T15:53:28.283Z,152.40
2018-12-20T15:56:07.848Z,153.47
2018-12-20T15:58:39.900Z,145.07
2018-12-20T16:01:11.790Z,146.57
2018-12-20T16:03:43.115Z,156.57
2018-12-20T16:06:14.105Z,144.57
2018-12-20T16:08:44.787Z,154.33
2018-12-20T16:11:15.796Z,145.07
2018-12-20T16:13:46.593Z,156.43
2018-12-20T16:16:17.222Z,149.23
2018-12-20T16:18:47.833Z,156.93
2018-12-20T16:21:18.444Z,149.53
2018-12-20T16:23:49.285Z,158.07
2018-12-20T16:26:20.414Z,150.67
2018-12-20T16:28:51.046Z,153.23
2018-12-20T16:31:22.453Z,149.03
2018-12-20T16:33:53.354Z,153.53
2018-12-20T16:36:25.915Z,152.13
2018-12-20T16:38:57.058Z,148.23
2018-12-20T16:41:30.626Z,158.70
2018-12-20T16:44:08.570Z,153.37
2018-12-20T16:46:39.883Z,156.70
2018-12-20T16:49:13.729Z,157.33
2018-12-20T16:51:44.687Z,149.90
2018-12-20T16:54:15.829Z,156.33
2018-12-20T16:56:47.269Z,157.50
2018-12-20T16:59:18.158Z,156.27
2018-12-20T17:01:48.851Z,150.03
2018-12-20T17:04:20.252Z,169.33
2018-12-20T17:06:51.787Z,153.57
2018-12-20T17:09:22.451Z,155.57
2018-12-20T17:11:53.172Z,161.67
2018-12-20T17:14:23.855Z,152.03
2018-12-20T17:16:54.559Z,164.57
2018-12-20T17:19:25.588Z,154.53
2018-12-20T17:21:58.237Z,155.73
2018-12-20T17:24:28.738Z,162.30
2018-12-20T17:26:59.390Z,155.90
2018-12-20T17:29:30.123Z,155.63
2018-12-20T17:32:00.761Z,151.33
2018-12-20T17:34:31.907Z,163.43
2018-12-20T17:37:02.429Z,148.70
2018-12-20T17:39:34.152Z,148.80
2018-12-20T17:42:04.838Z,158.70
2018-12-20T17:44:35.408Z,168.27
2018-12-20T17:47:06.038Z,158.73
2018-12-20T17:49:36.629Z,153.33
2018-12-20T17:52:08.182Z,155.73
2018-12-20T17:54:38.769Z,156.60
2018-12-20T17:57:09.588Z,145.63
2018-12-20T17:59:40.561Z,159.07
2018-12-20T18:02:17.494Z,151.50
2018-12-20T18:04:48.450Z,150.23
2018-12-20T18:07:19.587Z,164.40
2018-12-20T18:09:50.427Z,147.43
2018-12-20T18:12:21.101Z,150.63
2018-12-20T18:14:51.539Z,177.87
2018-12-20T18:17:22.389Z,164.53
2018-12-20T18:19:53.023Z,167.80
2018-12-20T18:22:24.416Z,173.17
2018-12-20T18:24:55.001Z,170.07
2018-12-20T18:27:25.792Z,165.33
2018-12-20T18:29:56.435Z,178.57
2018-12-20T18:32:27.312Z,168.07
2018-12-20T18:34:59.245Z,173.20
2018-12-20T18:37:30.199Z,164.80
2018-12-20T18:40:00.926Z,175.37
2018-12-20T18:42:31.821Z,183.03
2018-12-20T18:45:02.557Z,187.50
2018-12-20T18:47:33.435Z,181.40
2018-12-20T18:50:04.170Z,204.40
2018-12-20T18:52:36.938Z,204.53
2018-12-20T18:55:07.963Z,192.17
2018-12-20T18:57:38.540Z,196.70
2018-12-20T19:00:16.037Z,192.17
2018-12-20T19:02:48.478Z,197.70
2018-12-20T19:05:19.412Z,193.37
2018-12-20T19:07:50.657Z,200.53
2018-12-20T19:10:21.418Z,190.33
2018-12-20T19:12:52.195Z,197.37
2018-12-20T19:15:23.168Z,196.83
2018-12-20T19:17:54.354Z,184.70
2018-12-20T19:20:25.574Z,193.63
2018-12-20T19:22:56.528Z,197.70
2018-12-20T19:25:27.467Z,190.70
2018-12-20T19:28:03.637Z,203.50
2018-12-20T19:30:35.400Z,189.43
2018-12-20T19:33:06.580Z,201.00
2018-12-20T19:35:37.766Z,185.80
2018-12-20T19:38:08.566Z,192.90
2018-12-20T19:40:39.644Z,191.07
2018-12-20T19:43:10.469Z,202.27
2018-12-20T19:45:45.997Z,184.63
2018-12-20T19:48:14.783Z,194.07
2018-12-20T19:50:45.443Z,188.67
2018-12-20T19:53:17.371Z,184.83
2018-12-20T19:55:49.252Z,197.63
2018-12-20T19:58:20.345Z,184.70
2018-12-20T20:00:51.443Z,189.10
2018-12-20T20:03:22.192Z,190.97
2018-12-20T20:05:53.728Z,200.70
2018-12-20T20:08:25.155Z,196.70
2018-12-20T20:10:56.215Z,193.83
2018-12-20T20:13:30.899Z,194.33
2018-12-20T20:16:00.354Z,197.53
2018-12-20T20:18:31.383Z,187.20
2018-12-20T20:21:02.456Z,193.27
2018-12-20T20:23:33.314Z,193.07
2018-12-20T20:26:05.132Z,202.10
2018-12-20T20:28:36.366Z,207.50
2018-12-20T20:31:07.041Z,198.07
2018-12-20T20:33:38.647Z,195.20
2018-12-20T20:36:11.394Z,189.60
2018-12-20T20:38:42.381Z,193.77
2018-12-20T20:41:13.267Z,187.83
2018-12-20T20:43:44.173Z,197.93
2018-12-20T20:46:14.822Z,185.20
2018-12-20T20:48:45.896Z,198.40
2018-12-20T20:51:17.025Z,191.77
2018-12-20T20:53:48.369Z,190.50
2018-12-20T20:56:19.666Z,199.60
2018-12-20T20:58:50.583Z,206.93
2018-12-20T21:01:21.845Z,191.70
2018-12-20T21:03:53.035Z,188.03
2018-12-20T21:06:24.068Z,191.47
2018-12-20T21:08:55.596Z,181.77
2018-12-20T21:11:26.306Z,198.13
2018-12-20T21:13:57.743Z,199.90
2018-12-20T21:16:28.656Z,211.53
2018-12-20T21:18:59.776Z,204.20
2018-12-20T21:21:30.941Z,194.33
2018-12-20T21:24:02.086Z,202.77
2018-12-20T21:26:33.037Z,187.07
2018-12-20T21:29:03.770Z,198.80
2018-12-20T21:31:34.612Z,190.83
2018-12-20T21:34:05.478Z,183.00
2018-12-20T21:36:36.515Z,213.77
2018-12-20T21:39:07.579Z,192.33
2018-12-20T21:41:38.388Z,191.13
2018-12-20T21:44:09.281Z,200.17
2018-12-20T21:46:40.342Z,177.67
2018-12-20T21:49:11.269Z,197.17
2018-12-20T21:51:42.145Z,193.70
2018-12-20T21:54:13.183Z,201.23
2018-12-20T21:56:44.044Z,193.90
2018-12-20T21:59:14.865Z,197.43
2018-12-20T22:01:45.722Z,184.27
2018-12-20T22:04:16.367Z,188.50
2018-12-20T22:06:47.233Z,181.90
2018-12-20T22:09:18.649Z,180.70
2018-12-20T22:11:49.683Z,189.00
2018-12-20T22:14:20.931Z,197.97
2018-12-20T22:16:51.937Z,194.83
2018-12-20T22:19:24.051Z,187.80
2018-12-20T22:21:54.864Z,193.10
2018-12-20T22:24:25.719Z,194.83
2018-12-20T22:26:56.758Z,190.43
2018-12-20T22:29:27.725Z,176.97
2018-12-20T22:31:58.729Z,187.20
2018-12-20T22:34:29.745Z,187.97
2018-12-20T22:37:00.699Z,182.00
2018-12-20T22:39:31.433Z,195.83
2018-12-20T22:42:02.238Z,173.80
2018-12-20T22:44:33.144Z,186.27
2018-12-20T22:47:04.065Z,182.67
2018-12-20T22:49:35.209Z,182.60
2018-12-20T22:52:05.983Z,180.73
2018-12-20T22:54:37.191Z,178.90
2018-12-20T22:57:08.261Z,176.53
2018-12-20T22:59:39.067Z,180.97
2018-12-20T23:02:17.885Z,175.97
2018-12-20T23:04:43.133Z,192.97
2018-12-20T23:07:14.201Z,185.80
2018-12-20T23:09:45.313Z,187.50
2018-12-20T23:12:18.026Z,197.20
2018-12-20T23:14:49.560Z,184.07
2018-12-20T23:17:22.332Z,180.57
2018-12-20T23:19:53.483Z,177.13
2018-12-20T23:22:24.384Z,167.97
2018-12-20T23:24:55.607Z,180.43
2018-12-20T23:27:30.534Z,176.60
2018-12-20T23:30:01.476Z,168.90
2018-12-20T23:32:33.644Z,182.33
2018-12-20T23:35:05.875Z,181.33
2018-12-20T23:37:36.703Z,172.63
2018-12-20T23:40:07.582Z,164.80
2018-12-20T23:42:39.226Z,177.27
2018-12-20T23:45:12.273Z,185.93
2018-12-20T23:47:44.423Z,163.17
2018-12-20T23:50:14.498Z,165.33
2018-12-20T23:52:45.245Z,178.23
2018-12-20T23:55:16.266Z,172.30
2018-12-20T23:57:46.646Z,169.57
